createdAt,value
2023-01-19T00:01:48.444Z,2.53
2023-01-19T00:04:15.676Z,2.56
2023-01-19T00:06:42.984Z,2.57
2023-01-19T00:09:11.687Z,2.55
2023-01-19T00:11:39.412Z,2.59
2023-01-19T00:14:06.672Z,2.52
2023-01-19T00:16:33.955Z,2.54
2023-01-19T00:19:01.245Z,2.59
2023-01-19T00:21:28.498Z,2.59
2023-01-19T00:23:55.736Z,2.56
2023-01-19T00:26:24.458Z,2.61
2023-01-19T00:28:51.737Z,2.64
2023-01-19T00:31:19.016Z,2.59
2023-01-19T00:33:46.324Z,2.62
2023-01-19T00:36:13.635Z,2.66
2023-01-19T00:38:41.023Z,2.64
2023-01-19T00:41:08.552Z,2.67
2023-01-19T00:43:37.155Z,2.67
2023-01-19T00:46:04.588Z,2.67
2023-01-19T00:48:31.874Z,2.68
2023-01-19T00:50:59.121Z,2.65
2023-01-19T00:53:26.562Z,2.70
2023-01-19T00:55:53.780Z,2.69
2023-01-19T00:58:21.014Z,2.65
2023-01-19T01:00:49.798Z,2.65
2023-01-19T01:03:17.059Z,2.67
2023-01-19T01:05:44.291Z,2.63
2023-01-19T01:08:11.516Z,2.64
2023-01-19T01:10:38.800Z,2.66
2023-01-19T01:13:20.180Z,2.57
2023-01-19T01:15:51.819Z,2.54
2023-01-19T01:18:19.117Z,2.52
2023-01-19T01:20:46.396Z,2.56
2023-01-19T01:23:14.118Z,2.60
2023-01-19T01:25:41.574Z,2.58
2023-01-19T01:28:10.264Z,2.52
2023-01-19T01:30:37.948Z,2.42
2023-01-19T01:33:06.946Z,2.37
2023-01-19T01:35:34.186Z,2.32
2023-01-19T01:38:01.473Z,2.31
2023-01-19T01:40:28.779Z,2.31
2023-01-19T01:42:56.022Z,2.32
2023-01-19T01:45:29.891Z,2.35
2023-01-19T01:48:01.811Z,2.37
2023-01-19T01:50:33.911Z,2.38
2023-01-19T01:53:06.545Z,2.33
2023-01-19T01:55:38.780Z,2.39
2023-01-19T01:58:09.766Z,2.44
2023-01-19T02:00:38.891Z,2.42
2023-01-19T02:03:06.265Z,2.51
2023-01-19T02:05:36.182Z,2.51
2023-01-19T02:08:08.343Z,2.51
2023-01-19T02:10:36.006Z,2.51
2023-01-19T02:13:03.784Z,2.55
2023-01-19T02:15:31.059Z,2.57
2023-01-19T02:17:58.291Z,2.61
2023-01-19T02:20:30.596Z,2.60
2023-01-19T02:23:03.780Z,2.58
2023-01-19T02:25:32.755Z,2.56
2023-01-19T02:28:01.098Z,2.54
2023-01-19T02:30:28.911Z,2.56
2023-01-19T02:32:56.209Z,2.54
2023-01-19T02:35:24.488Z,2.58
2023-01-19T02:37:53.523Z,2.56
2023-01-19T02:40:22.527Z,2.59
2023-01-19T02:42:53.227Z,2.57
2023-01-19T02:45:22.498Z,2.64
2023-01-19T02:47:52.175Z,2.59
2023-01-19T02:50:44.786Z,2.62
2023-01-19T02:53:40.435Z,2.66
2023-01-19T02:56:28.091Z,2.69
2023-01-19T02:59:05.909Z,2.69
2023-01-19T03:01:47.303Z,2.74
2023-01-19T03:04:23.970Z,2.75
2023-01-19T03:06:59.347Z,2.71
2023-01-19T03:09:32.552Z,2.74
2023-01-19T03:12:05.020Z,2.73
2023-01-19T03:14:38.611Z,2.76
2023-01-19T03:17:09.538Z,2.75
2023-01-19T03:19:40.217Z,2.76
2023-01-19T03:22:11.116Z,2.75
2023-01-19T03:24:42.118Z,2.74
2023-01-19T03:27:14.874Z,2.72
2023-01-19T03:29:49.650Z,2.72
2023-01-19T03:32:19.794Z,2.70
2023-01-19T03:34:51.046Z,2.69
2023-01-19T03:37:20.570Z,2.76
2023-01-19T03:39:47.900Z,2.72
2023-01-19T03:42:17.421Z,2.72
2023-01-19T03:44:47.647Z,2.64
2023-01-19T03:47:15.215Z,2.63
2023-01-19T03:49:45.105Z,2.65
2023-01-19T03:52:12.542Z,2.69
2023-01-19T03:54:40.429Z,2.67
2023-01-19T03:57:08.150Z,2.63
2023-01-19T03:59:35.561Z,2.64
2023-01-19T04:02:04.287Z,2.65
2023-01-19T04:04:31.535Z,2.62
2023-01-19T04:06:58.883Z,2.61
2023-01-19T04:09:26.123Z,2.67
2023-01-19T04:11:53.441Z,2.67
2023-01-19T04:14:20.742Z,2.69
2023-01-19T04:16:48.086Z,2.67
2023-01-19T04:19:16.708Z,2.67
2023-01-19T04:21:44.069Z,2.68
2023-01-19T04:24:11.430Z,2.64
2023-01-19T04:26:38.682Z,2.65
2023-01-19T04:29:05.944Z,2.62
2023-01-19T04:31:33.300Z,2.62
2023-01-19T04:34:00.637Z,2.60
2023-01-19T04:36:29.531Z,2.55
2023-01-19T04:38:56.803Z,2.58
2023-01-19T04:41:24.052Z,2.55
2023-01-19T04:43:51.302Z,2.56
2023-01-19T04:46:18.677Z,2.61
2023-01-19T04:48:45.942Z,2.60
2023-01-19T04:51:13.250Z,2.60
2023-01-19T04:53:41.837Z,2.55
2023-01-19T04:56:09.092Z,2.51
2023-01-19T04:58:36.360Z,2.50
2023-01-19T05:01:08.310Z,2.52
2023-01-19T05:03:35.845Z,2.52
2023-01-19T05:06:03.127Z,2.50
2023-01-19T05:08:30.396Z,2.47
2023-01-19T05:10:58.969Z,2.49
2023-01-19T05:13:26.399Z,2.47
2023-01-19T05:15:53.700Z,2.45
2023-01-19T05:18:20.941Z,2.45
2023-01-19T05:20:48.163Z,2.47
2023-01-19T05:23:15.414Z,2.43
2023-01-19T05:25:42.955Z,2.44
2023-01-19T05:28:11.816Z,2.42
2023-01-19T05:30:39.190Z,2.43
2023-01-19T05:33:06.475Z,2.39
2023-01-19T05:35:36.152Z,2.45
2023-01-19T05:38:04.307Z,2.43
2023-01-19T05:40:31.885Z,2.43
2023-01-19T05:42:59.571Z,2.47
2023-01-19T05:45:28.568Z,2.50
2023-01-19T05:47:55.913Z,2.53
2023-01-19T05:50:23.159Z,2.49
2023-01-19T05:52:50.755Z,2.54
2023-01-19T05:55:17.889Z,2.55
2023-01-19T05:57:45.166Z,2.54
2023-01-19T06:00:13.753Z,2.60
2023-01-19T06:02:42.543Z,2.60
2023-01-19T06:05:10.196Z,2.58
2023-01-19T06:07:37.463Z,2.63
2023-01-19T06:10:05.562Z,2.65
2023-01-19T06:12:32.887Z,2.65
2023-01-19T06:15:00.151Z,2.67
2023-01-19T06:17:27.384Z,2.71
2023-01-19T06:19:56.260Z,2.69
2023-01-19T06:22:23.641Z,2.75
2023-01-19T06:24:50.854Z,2.75
2023-01-19T06:27:18.154Z,2.79
2023-01-19T06:29:45.309Z,2.81
2023-01-19T06:32:12.565Z,2.79
2023-01-19T06:34:39.954Z,2.74
2023-01-19T06:37:08.533Z,2.75
2023-01-19T06:39:35.785Z,2.82
2023-01-19T06:42:03.362Z,2.81
2023-01-19T06:44:30.519Z,2.84
2023-01-19T06:47:15.151Z,2.84
2023-01-19T06:49:43.478Z,2.83
2023-01-19T06:52:13.008Z,2.92
2023-01-19T06:54:40.259Z,2.86
2023-01-19T06:57:07.465Z,2.88
2023-01-19T06:59:34.727Z,2.87
2023-01-19T07:02:26.388Z,2.88
2023-01-19T07:04:49.089Z,2.85
2023-01-19T07:07:17.776Z,2.89
2023-01-19T07:09:44.950Z,2.93
2023-01-19T07:12:12.132Z,2.88
2023-01-19T07:14:39.327Z,2.80
2023-01-19T07:17:06.481Z,2.78
2023-01-19T07:19:33.728Z,2.77
2023-01-19T07:22:00.947Z,2.78
2023-01-19T07:24:29.796Z,2.76
2023-01-19T07:26:56.992Z,2.71
2023-01-19T07:29:24.200Z,2.69
2023-01-19T07:31:51.464Z,2.75
2023-01-19T07:34:18.776Z,2.71
2023-01-19T07:36:45.935Z,2.66
2023-01-19T07:39:13.271Z,2.71
2023-01-19T07:41:41.852Z,2.68
2023-01-19T07:44:09.476Z,2.64
2023-01-19T07:46:36.714Z,2.65
2023-01-19T07:49:04.014Z,2.67
2023-01-19T07:51:31.175Z,2.74
2023-01-19T07:53:58.485Z,2.71
2023-01-19T07:56:25.703Z,2.73
2023-01-19T07:58:54.364Z,2.71
2023-01-19T08:01:21.672Z,2.72
2023-01-19T08:03:49.310Z,2.78
2023-01-19T08:06:20.851Z,2.77
2023-01-19T08:08:48.730Z,2.81
2023-01-19T08:11:16.109Z,2.85
2023-01-19T08:13:43.463Z,2.91
2023-01-19T08:16:12.132Z,2.78
2023-01-19T08:18:39.433Z,2.82
2023-01-19T08:21:06.732Z,2.88
2023-01-19T08:23:34.010Z,2.83
2023-01-19T08:26:01.214Z,3.03
2023-01-19T08:28:28.505Z,2.93
2023-01-19T08:30:55.857Z,3.04
2023-01-19T08:33:24.794Z,3.03
2023-01-19T08:35:53.800Z,3.06
2023-01-19T08:38:21.182Z,3.15
2023-01-19T08:40:49.037Z,3.03
2023-01-19T08:43:17.475Z,3.11
2023-01-19T08:45:50.425Z,3.25
2023-01-19T08:48:20.062Z,3.22
2023-01-19T08:50:49.689Z,3.19
2023-01-19T08:53:17.167Z,3.29
2023-01-19T08:55:44.420Z,3.27
2023-01-19T08:58:11.635Z,3.22
2023-01-19T09:00:40.007Z,3.29
2023-01-19T09:03:11.108Z,3.25
2023-01-19T09:05:39.124Z,3.25
2023-01-19T09:08:10.195Z,3.31
2023-01-19T09:10:38.441Z,3.36
2023-01-19T09:13:07.210Z,3.35
2023-01-19T09:15:34.526Z,3.35
2023-01-19T09:18:02.387Z,3.28
2023-01-19T09:20:29.975Z,3.29
2023-01-19T09:22:57.829Z,3.27
2023-01-19T09:25:26.888Z,3.31
2023-01-19T09:27:54.068Z,3.35
2023-01-19T09:30:21.733Z,3.27
2023-01-19T09:32:48.970Z,3.20
2023-01-19T09:35:16.320Z,3.24
2023-01-19T09:37:46.300Z,3.29
2023-01-19T09:40:15.084Z,3.30
2023-01-19T09:42:45.837Z,3.38
2023-01-19T09:45:19.357Z,3.22
2023-01-19T09:47:48.295Z,3.27
2023-01-19T09:50:26.054Z,3.30
2023-01-19T09:52:57.077Z,3.29
2023-01-19T09:55:27.354Z,3.32
2023-01-19T09:57:56.082Z,3.32
2023-01-19T10:00:25.147Z,3.34
2023-01-19T10:02:58.575Z,3.34
2023-01-19T10:05:31.391Z,3.29
2023-01-19T10:08:13.931Z,3.33
2023-01-19T10:10:45.256Z,3.35
2023-01-19T10:13:38.993Z,3.48
2023-01-19T10:16:19.369Z,3.46
2023-01-19T10:18:48.254Z,3.47
2023-01-19T10:21:20.843Z,3.54
2023-01-19T10:23:53.468Z,3.42
2023-01-19T10:26:24.261Z,3.39
2023-01-19T10:28:55.533Z,3.31
2023-01-19T10:31:24.537Z,3.26
2023-01-19T10:33:52.569Z,3.30
2023-01-19T10:36:26.234Z,3.19
2023-01-19T10:38:53.485Z,3.34
2023-01-19T10:41:26.905Z,3.36
2023-01-19T10:44:01.597Z,3.51
2023-01-19T10:46:37.162Z,3.42
2023-01-19T10:49:05.453Z,3.35
2023-01-19T10:51:32.761Z,3.42
2023-01-19T10:54:01.891Z,3.36
2023-01-19T10:56:35.681Z,3.48
2023-01-19T10:59:06.175Z,3.51
2023-01-19T11:01:34.204Z,3.61
2023-01-19T11:04:18.759Z,3.69
2023-01-19T11:06:46.043Z,3.64
2023-01-19T11:09:17.600Z,3.77
2023-01-19T11:11:47.961Z,3.77
2023-01-19T11:14:19.223Z,3.86
2023-01-19T11:16:49.960Z,3.99
2023-01-19T11:19:24.973Z,3.88
2023-01-19T11:21:53.287Z,3.84
2023-01-19T11:24:20.833Z,3.71
2023-01-19T11:26:55.096Z,3.79
2023-01-19T11:29:26.518Z,3.87
2023-01-19T11:31:55.327Z,3.97
2023-01-19T11:34:26.321Z,4.03
2023-01-19T11:36:58.869Z,4.06
2023-01-19T11:39:27.508Z,4.09
2023-01-19T11:41:57.240Z,4.06
2023-01-19T11:44:30.060Z,4.12
2023-01-19T11:47:00.137Z,4.19
2023-01-19T11:49:40.492Z,4.43
2023-01-19T11:52:19.175Z,4.42
2023-01-19T11:54:54.108Z,4.60
2023-01-19T11:57:21.468Z,4.69
2023-01-19T11:59:52.806Z,4.67
2023-01-19T12:02:27.114Z,4.76
2023-01-19T12:04:57.902Z,5.01
2023-01-19T12:07:30.110Z,4.94
2023-01-19T12:10:06.994Z,5.00
2023-01-19T12:12:36.479Z,5.04
2023-01-19T12:15:15.341Z,5.24
2023-01-19T12:17:47.403Z,5.29
2023-01-19T12:20:25.003Z,5.23
2023-01-19T12:23:11.562Z,5.17
2023-01-19T12:25:54.653Z,5.23
2023-01-19T12:28:28.557Z,5.25
2023-01-19T12:30:59.256Z,5.48
2023-01-19T12:33:33.500Z,5.43
2023-01-19T12:36:03.240Z,5.54
2023-01-19T12:38:39.030Z,5.31
2023-01-19T12:41:21.038Z,5.38
2023-01-19T12:44:09.089Z,5.23
2023-01-19T12:46:38.786Z,5.21
2023-01-19T12:49:10.920Z,5.39
2023-01-19T12:51:38.430Z,5.51
2023-01-19T12:54:08.176Z,6.14
2023-01-19T12:56:37.730Z,6.45
2023-01-19T12:59:05.386Z,6.65
2023-01-19T13:01:32.828Z,6.60
2023-01-19T13:04:06.606Z,6.89
2023-01-19T13:07:09.419Z,7.86
2023-01-19T13:09:38.103Z,8.36
2023-01-19T13:12:22.880Z,8.41
2023-01-19T13:14:50.296Z,8.50
2023-01-19T13:17:25.247Z,8.92
2023-01-19T13:20:00.751Z,9.39
2023-01-19T13:23:01.617Z,9.30
2023-01-19T13:25:32.771Z,9.08
2023-01-19T13:28:00.877Z,9.13
2023-01-19T13:30:30.062Z,9.01
2023-01-19T13:33:05.262Z,9.40
2023-01-19T13:35:34.075Z,9.58
2023-01-19T13:38:02.475Z,8.57
2023-01-19T13:40:36.565Z,7.52
2023-01-19T13:43:06.864Z,7.89
2023-01-19T13:45:36.957Z,7.34
2023-01-19T13:48:07.693Z,6.63
2023-01-19T13:50:37.489Z,6.45
2023-01-19T13:53:17.099Z,6.36
2023-01-19T13:55:44.417Z,6.25
2023-01-19T13:58:20.565Z,6.11
2023-01-19T14:00:48.124Z,6.23
2023-01-19T14:03:18.750Z,6.17
2023-01-19T14:05:50.047Z,6.23
2023-01-19T14:08:17.435Z,6.14
2023-01-19T14:10:46.440Z,6.27
2023-01-19T14:13:15.756Z,6.03
2023-01-19T14:15:44.661Z,5.94
2023-01-19T14:18:25.697Z,5.72
2023-01-19T14:20:59.306Z,5.69
2023-01-19T14:23:44.912Z,6.06
2023-01-19T14:26:41.223Z,6.43
2023-01-19T14:29:17.393Z,5.81
2023-01-19T14:31:45.997Z,5.67
2023-01-19T14:34:32.662Z,5.50
2023-01-19T14:37:02.809Z,5.48
2023-01-19T14:39:33.113Z,5.66
2023-01-19T14:42:03.592Z,5.50
2023-01-19T14:44:36.983Z,5.38
2023-01-19T14:47:05.983Z,5.46
2023-01-19T14:49:35.461Z,5.53
2023-01-19T14:52:08.367Z,5.37
2023-01-19T14:54:39.093Z,5.41
2023-01-19T14:57:12.012Z,5.27
2023-01-19T14:59:39.363Z,5.18
2023-01-19T15:02:06.920Z,5.14
2023-01-19T15:04:34.386Z,5.05
2023-01-19T15:07:01.676Z,5.02
2023-01-19T15:09:30.444Z,4.93
2023-01-19T15:11:58.244Z,4.89
2023-01-19T15:14:25.493Z,4.83
2023-01-19T15:16:52.691Z,4.81
2023-01-19T15:19:19.925Z,4.85
2023-01-19T15:21:47.090Z,4.89
2023-01-19T15:24:16.356Z,4.87
2023-01-19T15:26:46.609Z,4.85
2023-01-19T15:29:19.237Z,4.88
2023-01-19T15:31:46.670Z,4.85
2023-01-19T15:34:13.975Z,4.79
2023-01-19T15:36:41.620Z,4.69
2023-01-19T15:39:09.195Z,4.63
2023-01-19T15:41:38.594Z,4.51
2023-01-19T15:44:08.877Z,4.40
2023-01-19T15:46:36.702Z,4.27
2023-01-19T15:49:03.926Z,4.27
2023-01-19T15:51:31.484Z,4.25
2023-01-19T15:53:58.708Z,4.24
2023-01-19T15:56:27.960Z,4.30
2023-01-19T15:58:56.056Z,4.30
2023-01-19T16:01:26.890Z,4.31
2023-01-19T16:03:54.181Z,4.27
2023-01-19T16:06:21.453Z,4.20
2023-01-19T16:08:48.637Z,4.08
2023-01-19T16:11:15.927Z,3.97
2023-01-19T16:13:45.289Z,3.96
2023-01-19T16:16:15.700Z,3.88
2023-01-19T16:18:44.564Z,3.87
2023-01-19T16:21:11.839Z,3.86
2023-01-19T16:23:39.302Z,3.79
2023-01-19T16:26:08.503Z,3.78
2023-01-19T16:28:36.833Z,3.74
2023-01-19T16:31:04.653Z,3.69
2023-01-19T16:33:31.874Z,3.67
2023-01-19T16:36:17.538Z,3.65
2023-01-19T16:38:44.938Z,3.57
2023-01-19T16:41:12.122Z,3.56
2023-01-19T16:43:39.372Z,3.55
2023-01-19T16:46:06.658Z,3.51
2023-01-19T16:48:33.903Z,3.49
2023-01-19T16:51:04.687Z,3.51
2023-01-19T16:53:33.478Z,3.40
2023-01-19T16:56:04.541Z,3.36
2023-01-19T16:58:31.816Z,3.33
2023-01-19T17:00:59.203Z,3.29
2023-01-19T17:03:26.542Z,3.29
2023-01-19T17:05:53.785Z,3.26
2023-01-19T17:08:22.480Z,3.26
2023-01-19T17:10:49.673Z,3.26
2023-01-19T17:13:17.058Z,3.22
2023-01-19T17:15:44.248Z,3.15
2023-01-19T17:18:11.453Z,3.15
2023-01-19T17:20:38.661Z,3.19
2023-01-19T17:23:05.996Z,3.06
2023-01-19T17:25:34.587Z,3.20
2023-01-19T17:28:01.799Z,3.19
2023-01-19T17:30:29.190Z,3.15
2023-01-19T17:32:56.687Z,3.21
2023-01-19T17:35:24.114Z,3.20
2023-01-19T17:37:53.017Z,3.15
2023-01-19T17:40:20.259Z,3.22
2023-01-19T17:42:48.855Z,3.20
2023-01-19T17:45:16.304Z,3.13
2023-01-19T17:47:43.848Z,3.08
2023-01-19T17:50:11.545Z,3.06
2023-01-19T17:52:38.958Z,2.97
2023-01-19T17:55:06.836Z,2.94
2023-01-19T17:57:34.079Z,2.97
2023-01-19T18:00:03.765Z,2.90
2023-01-19T18:02:39.609Z,2.91
2023-01-19T18:05:08.127Z,2.90
2023-01-19T18:07:35.445Z,2.92
2023-01-19T18:10:02.690Z,2.89
2023-01-19T18:12:29.872Z,2.88
2023-01-19T18:14:57.076Z,2.89
2023-01-19T18:17:25.799Z,2.82
2023-01-19T18:19:53.037Z,2.83
2023-01-19T18:22:20.248Z,2.77
2023-01-19T18:24:47.433Z,2.75
2023-01-19T18:27:14.789Z,2.74
2023-01-19T18:29:42.048Z,2.75
2023-01-19T18:32:09.607Z,2.71
2023-01-19T18:34:38.279Z,2.66
2023-01-19T18:37:05.432Z,2.67
2023-01-19T18:39:32.789Z,2.60
2023-01-19T18:42:00.007Z,2.56
2023-01-19T18:44:27.267Z,2.56
2023-01-19T18:46:54.436Z,2.52
2023-01-19T18:49:21.711Z,2.44
2023-01-19T18:51:50.267Z,2.37
2023-01-19T18:54:17.526Z,2.37
2023-01-19T18:56:44.766Z,2.34
2023-01-19T18:59:12.025Z,2.35
2023-01-19T19:01:39.364Z,2.38
2023-01-19T19:04:06.839Z,2.38
2023-01-19T19:06:34.309Z,2.30
2023-01-19T19:09:03.507Z,2.32
2023-01-19T19:11:30.794Z,2.25
2023-01-19T19:14:01.308Z,2.25
2023-01-19T19:16:29.955Z,2.23
2023-01-19T19:18:57.287Z,2.19
2023-01-19T19:21:24.671Z,2.12
2023-01-19T19:23:53.053Z,2.12
2023-01-19T19:26:22.998Z,2.12
2023-01-19T19:28:50.334Z,2.12
2023-01-19T19:31:19.445Z,2.12
2023-01-19T19:33:47.559Z,2.04
2023-01-19T19:36:15.287Z,2.03
2023-01-19T19:38:42.661Z,2.00
2023-01-19T19:41:12.571Z,1.98
2023-01-19T19:43:41.176Z,2.00
2023-01-19T19:46:10.534Z,1.98
2023-01-19T19:48:39.330Z,1.96
2023-01-19T19:51:17.499Z,1.95
2023-01-19T19:53:45.347Z,1.91
2023-01-19T19:56:13.311Z,1.85
2023-01-19T19:58:42.908Z,1.88
2023-01-19T20:01:12.000Z,1.87
2023-01-19T20:03:39.522Z,1.80
2023-01-19T20:06:08.928Z,1.79
2023-01-19T20:08:36.600Z,1.81
2023-01-19T20:11:05.949Z,1.76
2023-01-19T20:13:34.186Z,1.71
2023-01-19T20:16:05.166Z,1.72
2023-01-19T20:18:32.691Z,1.76
2023-01-19T20:21:00.159Z,1.74
2023-01-19T20:23:27.399Z,1.72
2023-01-19T20:25:54.682Z,1.69
2023-01-19T20:28:21.974Z,1.71
2023-01-19T20:30:49.281Z,1.77
2023-01-19T20:33:17.987Z,1.75
2023-01-19T20:35:45.185Z,1.76
2023-01-19T20:38:12.394Z,1.78
2023-01-19T20:40:39.589Z,1.77
2023-01-19T20:43:06.820Z,1.81
2023-01-19T20:45:34.097Z,1.76
2023-01-19T20:48:01.466Z,1.78
2023-01-19T20:50:30.078Z,1.77
2023-01-19T20:52:57.395Z,1.70
2023-01-19T20:55:24.577Z,1.69
2023-01-19T20:57:51.923Z,1.66
2023-01-19T21:00:19.690Z,1.68
2023-01-19T21:02:47.068Z,1.65
2023-01-19T21:05:14.659Z,1.59
2023-01-19T21:07:43.469Z,1.59
2023-01-19T21:10:10.845Z,1.58
2023-01-19T21:12:38.065Z,1.69
2023-01-19T21:15:06.542Z,1.58
2023-01-19T21:17:33.809Z,1.59
2023-01-19T21:20:00.994Z,1.58
2023-01-19T21:22:28.283Z,1.54
2023-01-19T21:24:56.824Z,1.59
2023-01-19T21:27:24.164Z,1.66
2023-01-19T21:29:51.459Z,1.63
2023-01-19T21:32:18.791Z,1.61
2023-01-19T21:34:46.045Z,1.58
2023-01-19T21:37:13.371Z,1.51
2023-01-19T21:39:40.586Z,1.47
2023-01-19T21:42:09.248Z,1.38
2023-01-19T21:44:36.579Z,1.34
2023-01-19T21:47:04.546Z,1.36
2023-01-19T21:49:31.713Z,1.35
2023-01-19T21:51:59.078Z,1.30
2023-01-19T21:54:26.610Z,1.31
2023-01-19T21:56:53.895Z,1.30
2023-01-19T21:59:22.446Z,1.34
2023-01-19T22:01:49.894Z,1.35
2023-01-19T22:04:17.225Z,1.38
2023-01-19T22:06:44.544Z,1.35
2023-01-19T22:09:11.756Z,1.37
2023-01-19T22:11:39.025Z,1.37
2023-01-19T22:14:06.325Z,1.34
2023-01-19T22:16:34.933Z,1.32
2023-01-19T22:19:02.347Z,1.31
2023-01-19T22:21:32.132Z,1.32
2023-01-19T22:24:00.562Z,1.32
2023-01-19T22:26:29.019Z,1.29
2023-01-19T22:28:57.988Z,1.23
2023-01-19T22:31:27.193Z,1.12
2023-01-19T22:33:56.326Z,1.13
2023-01-19T22:36:24.934Z,1.15
2023-01-19T22:38:54.406Z,1.16
2023-01-19T22:41:24.002Z,1.23
2023-01-19T22:43:54.150Z,1.12
2023-01-19T22:46:23.441Z,1.15
2023-01-19T22:48:51.333Z,1.13
2023-01-19T22:51:21.512Z,1.06
2023-01-19T22:53:48.892Z,1.04
2023-01-19T22:56:18.128Z,1.08
2023-01-19T22:58:46.697Z,1.02
2023-01-19T23:01:16.600Z,1.03
2023-01-19T23:03:44.078Z,0.99
2023-01-19T23:06:12.973Z,1.01
2023-01-19T23:08:42.054Z,1.05
2023-01-19T23:11:11.864Z,1.00
2023-01-19T23:13:39.314Z,1.02
2023-01-19T23:16:07.829Z,1.02
2023-01-19T23:18:35.256Z,1.01
2023-01-19T23:21:03.699Z,1.00
2023-01-19T23:23:31.080Z,0.98
2023-01-19T23:26:03.860Z,0.99
2023-01-19T23:28:31.201Z,0.96
2023-01-19T23:30:58.560Z,0.88
2023-01-19T23:33:25.988Z,0.88
2023-01-19T23:35:55.096Z,0.83
2023-01-19T23:38:22.669Z,0.77
2023-01-19T23:40:49.893Z,0.69
2023-01-19T23:43:18.463Z,0.70
2023-01-19T23:45:45.648Z,0.69
2023-01-19T23:48:13.060Z,0.64
2023-01-19T23:50:40.799Z,0.61
2023-01-19T23:53:08.140Z,0.57
2023-01-19T23:55:35.422Z,0.55
2023-01-19T23:58:02.867Z,0.47
